Time;durP1;ratioP1;P1;durP2;ratioP2;P2;SDS_P1;SDS_P2;PMS_P1;PMS_P2;Temp;Humidity;BMP_temperature;BMP_pressure;BME280_temperature;BME280_humidity;BME280_pressure;Samples;Min_cycle;Max_cycle;Signal;HPM_P1;HPM_P2
2021/12/23 00:09:14;;;;;;;41;74.1;;;;;;;-5.4;75.1;99610;;;;
2021/12/23 00:19:22;;;;;;;41;74.1;;;;;;;-5.4;74.6;99600;;;;
2021/12/23 00:29:14;;;;;;;42.8;77.2;;;;;;;-5.5;74.7;99580;;;;
2021/12/23 00:39:15;;;;;;;42.8;77.2;;;;;;;-5.6;75.2;99570;;;;
2021/12/23 00:50:14;;;;;;;42.8;77.2;;;;;;;-5.4;75.4;99570;;;;
2021/12/23 01:00:15;;;;;;;42.2;75.8;;;;;;;-5.4;75.3;99550;;;;
2021/12/23 01:10:14;;;;;;;42.2;75.8;;;;;;;-5.3;75.6;99540;;;;
2021/12/23 01:21:16;;;;;;;42.2;75.8;;;;;;;-5.3;74.7;99550;;;;
2021/12/23 01:31:14;;;;;;;44.9;78.3;;;;;;;-5.5;74.3;99540;;;;
2021/12/23 01:41:14;;;;;;;44.9;78.3;;;;;;;-5.6;74.6;99530;;;;
2021/12/23 01:51:14;;;;;;;44.9;78.3;;;;;;;-5.8;75.1;99520;;;;
2021/12/23 02:01:14;;;;;;;45;83.6;;;;;;;-6;75;99500;;;;
2021/12/23 02:11:14;;;;;;;45;83.6;;;;;;;-6.2;74.9;99500;;;;
2021/12/23 02:21:14;;;;;;;45;83.6;;;;;;;-6.5;74.8;99480;;;;
2021/12/23 02:32:14;;;;;;;37.8;71;;;;;;;-6.7;75.6;99460;;;;
2021/12/23 02:43:14;;;;;;;37.8;71;;;;;;;-6.9;75.8;99450;;;;
2021/12/23 02:53:14;;;;;;;37.8;71;;;;;;;-7.1;76.6;99450;;;;
2021/12/23 03:04:14;;;;;;;33.9;66.1;;;;;;;-7.1;77.2;99430;;;;
2021/12/23 03:14:15;;;;;;;33.9;66.1;;;;;;;-7.2;76.8;99420;;;;
2021/12/23 03:24:15;;;;;;;33.9;66.1;;;;;;;-7.3;76.6;99400;;;;
2021/12/23 03:35:14;;;;;;;29.2;56.2;;;;;;;-7.4;76.4;99400;;;;
2021/12/23 03:46:14;;;;;;;29.2;56.2;;;;;;;-7.4;76;99390;;;;
2021/12/23 03:57:14;;;;;;;17.3;35.9;;;;;;;-7.4;75.5;99380;;;;
2021/12/23 04:07:16;;;;;;;17.3;35.9;;;;;;;-7.3;75.3;99360;;;;
2021/12/23 04:18:14;;;;;;;17.3;35.9;;;;;;;-7.4;75.2;99350;;;;
2021/12/23 04:29:14;;;;;;;16.2;29.3;;;;;;;-7.4;74.8;99340;;;;
2021/12/23 04:40:14;;;;;;;16.2;29.3;;;;;;;-7.4;74.7;99350;;;;
2021/12/23 04:50:14;;;;;;;16.2;29.3;;;;;;;-7.3;74.4;99340;;;;
2021/12/23 05:00:14;;;;;;;20.3;33.3;;;;;;;-7.5;74;99320;;;;
2021/12/23 05:11:15;;;;;;;20.3;33.3;;;;;;;-7.9;74.5;99300;;;;
2021/12/23 05:21:14;;;;;;;20.3;33.3;;;;;;;-8;75.4;99290;;;;
2021/12/23 05:31:14;;;;;;;28.9;53.7;;;;;;;-8;75.6;99280;;;;
2021/12/23 05:42:14;;;;;;;28.9;53.7;;;;;;;-7.9;75.5;99280;;;;
2021/12/23 05:53:14;;;;;;;28.9;53.7;;;;;;;-7.9;75;99260;;;;
2021/12/23 06:03:14;;;;;;;33.4;59.1;;;;;;;-8;75;99250;;;;
2021/12/23 06:13:14;;;;;;;33.4;59.1;;;;;;;-8.2;74.8;99240;;;;
2021/12/23 06:23:14;;;;;;;33.4;59.1;;;;;;;-8.1;75.3;99240;;;;
2021/12/23 06:34:14;;;;;;;29.3;51.9;;;;;;;-8;75.8;99240;;;;
2021/12/23 06:44:15;;;;;;;29.3;51.9;;;;;;;-8;76;99230;;;;
2021/12/23 06:55:14;;;;;;;32.1;59.7;;;;;;;-7.9;76.2;99220;;;;
2021/12/23 07:06:18;;;;;;;32.1;59.7;;;;;;;-7.8;76.4;99210;;;;
2021/12/23 07:16:14;;;;;;;32.1;59.7;;;;;;;-7.5;76.3;99200;;;;
2021/12/23 07:26:14;;;;;;;24.7;45;;;;;;;-7.3;75.6;99200;;;;
2021/12/23 07:36:14;;;;;;;24.7;45;;;;;;;-6.9;75.9;99200;;;;
2021/12/23 07:47:14;;;;;;;24.7;45;;;;;;;-6.4;75.8;99180;;;;
2021/12/23 07:57:14;;;;;;;31.2;54.6;;;;;;;-5.9;75.1;99180;;;;
2021/12/23 08:08:14;;;;;;;31.2;54.6;;;;;;;-5.6;75;99170;;;;
2021/12/23 08:18:14;;;;;;;31.2;54.6;;;;;;;-5.2;74.5;99160;;;;
2021/12/23 08:29:17;;;;;;;43.8;70.1;;;;;;;-4.8;74;99150;;;;
2021/12/23 08:39:14;;;;;;;43.8;70.1;;;;;;;-4.5;72.4;99150;;;;
2021/12/23 08:50:14;;;;;;;43.8;70.1;;;;;;;-3.8;72.1;99120;;;;
2021/12/23 09:00:14;;;;;;;50.3;78.6;;;;;;;-3.5;71.7;99130;;;;
2021/12/23 09:11:14;;;;;;;50.3;78.6;;;;;;;-3.3;71.1;99110;;;;
2021/12/23 09:21:14;;;;;;;50.3;78.6;;;;;;;-3.2;70.3;99110;;;;
2021/12/23 09:42:14;;;;;;;49.7;71.1;;;;;;;-2.3;68.9;99040;;;;
2021/12/23 09:52:14;;;;;;;49.7;71.1;;;;;;;-2;69;99030;;;;
2021/12/23 10:02:14;;;;;;;57.8;74.3;;;;;;;-1.5;69.2;99020;;;;
2021/12/23 10:33:43;;;;;;;57.2;67.2;;;;;;;0;64.7;98930;;;;
2021/12/23 10:44:14;;;;;;;57.2;67.2;;;;;;;0.7;62.4;98910;;;;
2021/12/23 10:54:22;;;;;;;27.4;33.4;;;;;;;1;61.2;98880;;;;
2021/12/23 11:04:14;;;;;;;27.4;33.4;;;;;;;0.6;59.9;98850;;;;
2021/12/23 11:36:31;;;;;;;21.8;27.1;;;;;;;0.8;59.8;98770;;;;
2021/12/23 11:46:15;;;;;;;21.8;27.1;;;;;;;1;59.5;98740;;;;
2021/12/23 11:57:16;;;;;;;20.3;25.2;;;;;;;1;58.4;98710;;;;
2021/12/23 12:07:14;;;;;;;20.3;25.2;;;;;;;1.3;58.7;98700;;;;
2021/12/23 12:18:14;;;;;;;20.3;25.2;;;;;;;1.5;59.3;98690;;;;
2021/12/23 12:28:15;;;;;;;23;27.4;;;;;;;1.5;58.6;98680;;;;
2021/12/23 12:38:14;;;;;;;23;27.4;;;;;;;1.4;60.3;98630;;;;
2021/12/23 12:48:15;;;;;;;23;27.4;;;;;;;1.2;61;98610;;;;
2021/12/23 12:59:14;;;;;;;21.1;25.6;;;;;;;0.9;61.5;98590;;;;
2021/12/23 13:09:15;;;;;;;21.1;25.6;;;;;;;0.8;62.5;98590;;;;
2021/12/23 13:20:14;;;;;;;21.1;25.6;;;;;;;0.7;62.3;98560;;;;
2021/12/23 13:31:14;;;;;;;15.9;20.9;;;;;;;0.4;63.4;98550;;;;
2021/12/23 13:41:14;;;;;;;15.9;20.9;;;;;;;0.3;64.1;98560;;;;
2021/12/23 13:52:14;;;;;;;17.9;22.9;;;;;;;0.3;64.1;98510;;;;
2021/12/23 14:02:14;;;;;;;17.9;22.9;;;;;;;0.2;64.9;98480;;;;
2021/12/23 14:12:15;;;;;;;17.9;22.9;;;;;;;0;65;98460;;;;
2021/12/23 14:23:18;;;;;;;21.6;26.9;;;;;;;-0.3;66.5;98440;;;;
2021/12/23 14:33:15;;;;;;;21.6;26.9;;;;;;;-0.4;67.1;98430;;;;
2021/12/23 14:43:14;;;;;;;21.6;26.9;;;;;;;-0.5;67.2;98410;;;;
2021/12/23 14:53:14;;;;;;;25.1;29.1;;;;;;;-0.6;67.5;98390;;;;
2021/12/23 15:03:14;;;;;;;25.1;29.1;;;;;;;-0.7;67.8;98390;;;;
2021/12/23 15:14:14;;;;;;;25.1;29.1;;;;;;;-0.8;68.5;98380;;;;
2021/12/23 15:25:14;;;;;;;28.1;39.1;;;;;;;-1;68.6;98380;;;;
2021/12/23 15:35:16;;;;;;;28.1;39.1;;;;;;;-1.1;68.9;98350;;;;
2021/12/23 15:45:14;;;;;;;28.1;39.1;;;;;;;-1.1;68.4;98330;;;;
2021/12/23 15:56:14;;;;;;;41.2;64.6;;;;;;;-1.2;69.3;98310;;;;
2021/12/23 16:07:19;;;;;;;41.2;64.6;;;;;;;-1.2;69.6;98280;;;;
2021/12/23 16:16:14;;;;;;;41.2;64.6;;;;;;;-1.2;69.1;98260;;;;
2021/12/23 16:27:15;;;;;;;33.6;46.6;;;;;;;-1;68.6;98230;;;;
2021/12/23 16:37:14;;;;;;;33.6;46.6;;;;;;;-0.9;68.8;98210;;;;
2021/12/23 16:47:14;;;;;;;33.6;46.6;;;;;;;-1;69.3;98210;;;;
2021/12/23 16:58:14;;;;;;;39.1;48.5;;;;;;;-0.9;69.3;98200;;;;
2021/12/23 17:08:15;;;;;;;39.1;48.5;;;;;;;-0.9;69.7;98170;;;;
2021/12/23 17:19:14;;;;;;;39.1;48.5;;;;;;;-0.8;68.9;98150;;;;
2021/12/23 17:29:14;;;;;;;51.9;69.9;;;;;;;-0.8;68.7;98150;;;;
2021/12/23 17:40:14;;;;;;;51.9;69.9;;;;;;;-0.6;67.1;98120;;;;
2021/12/23 17:50:14;;;;;;;51.9;69.9;;;;;;;-0.7;68.2;98070;;;;
2021/12/23 18:00:14;;;;;;;21.4;24.7;;;;;;;-0.5;66.8;98050;;;;
2021/12/23 18:11:15;;;;;;;21.4;24.7;;;;;;;-0.3;66.5;98030;;;;
2021/12/23 18:21:14;;;;;;;19.3;24.8;;;;;;;-0.2;65.9;97970;;;;
2021/12/23 18:31:14;;;;;;;19.3;24.8;;;;;;;-0.2;65.8;97980;;;;
2021/12/23 18:42:15;;;;;;;19.3;24.8;;;;;;;-0.1;65.9;98020;;;;
2021/12/23 18:52:14;;;;;;;24.6;30.2;;;;;;;0;66.7;98040;;;;
2021/12/23 19:03:24;;;;;;;24.6;30.2;;;;;;;0.1;66;98040;;;;
2021/12/23 19:13:14;;;;;;;24.6;30.2;;;;;;;0.2;66.9;98030;;;;
2021/12/23 19:23:14;;;;;;;42.4;56;;;;;;;0.1;67.7;98030;;;;
2021/12/23 19:34:07;;;;;;;42.4;56;;;;;;;0.2;67.8;98020;;;;
2021/12/23 19:44:07;;;;;;;42.4;56;;;;;;;0;67.5;97980;;;;
2021/12/23 19:55:07;;;;;;;45.7;55;;;;;;;0;68.9;97950;;;;
2021/12/23 20:05:07;;;;;;;45.7;55;;;;;;;-0.2;69.6;97980;;;;
2021/12/23 20:16:07;;;;;;;45.7;55;;;;;;;-0.1;69.1;97950;;;;
2021/12/23 20:27:07;;;;;;;42.4;52.3;;;;;;;0.1;66.3;97900;;;;
2021/12/23 20:38:07;;;;;;;42.4;52.3;;;;;;;0.3;64.7;97880;;;;
2021/12/23 20:48:07;;;;;;;42.4;52.3;;;;;;;0.2;64.5;97860;;;;
2021/12/23 20:59:07;;;;;;;17.7;21;;;;;;;0.4;64.1;97850;;;;
2021/12/23 21:09:07;;;;;;;17.7;21;;;;;;;0.3;64.6;97840;;;;
2021/12/23 21:20:09;;;;;;;17.7;21;;;;;;;0.4;64.7;97800;;;;
2021/12/23 21:30:07;;;;;;;20.4;25.8;;;;;;;0.4;64.4;97780;;;;
2021/12/23 21:41:07;;;;;;;20.4;25.8;;;;;;;0.5;64.7;97770;;;;
2021/12/23 21:51:09;;;;;;;17.5;22.3;;;;;;;0.6;64.4;97750;;;;
2021/12/23 22:02:07;;;;;;;17.5;22.3;;;;;;;0.6;64.4;97710;;;;
2021/12/23 22:12:07;;;;;;;17.5;22.3;;;;;;;0.7;63.9;97690;;;;
2021/12/23 22:22:07;;;;;;;13.1;19.5;;;;;;;0.8;64;97660;;;;
2021/12/23 22:32:07;;;;;;;13.1;19.5;;;;;;;0.8;64.3;97640;;;;
2021/12/23 22:43:07;;;;;;;13.1;19.5;;;;;;;0.8;65.1;97610;;;;
2021/12/23 22:54:07;;;;;;;11.7;15.2;;;;;;;0.9;66;97590;;;;
2021/12/23 23:04:07;;;;;;;11.7;15.2;;;;;;;0.9;69.4;97570;;;;
2021/12/23 23:14:23;;;;;;;11.7;15.2;;;;;;;0.8;71;97550;;;;
2021/12/23 23:25:15;;;;;;;12.6;15.1;;;;;;;0.8;70.5;97530;;;;
2021/12/23 23:36:12;;;;;;;12.6;15.1;;;;;;;0.9;71;97520;;;;
2021/12/23 23:47:07;;;;;;;12.6;15.1;;;;;;;0.9;72;97510;;;;
2021/12/23 23:57:07;;;;;;;13.3;17.2;;;;;;;0.9;73.3;97500;;;;
